createdAt,value
2023-05-01T00:01:50.375Z,99651.50
2023-05-01T00:16:52.529Z,99652.34
2023-05-01T00:31:55.081Z,99660.22
2023-05-01T00:47:00.768Z,99665.06
2023-05-01T01:02:02.477Z,99658.63
2023-05-01T01:17:29.778Z,99654.28
2023-05-01T01:32:34.258Z,99656.66
2023-05-01T01:47:37.056Z,99665.75
2023-05-01T02:02:40.131Z,99675.13
2023-05-01T02:17:42.497Z,99691.53
2023-05-01T02:32:44.674Z,99710.22
2023-05-01T02:47:52.599Z,99737.59
2023-05-01T03:02:54.897Z,99751.97
2023-05-01T03:17:56.812Z,99773.38
2023-05-01T03:32:58.667Z,99791.78
2023-05-01T03:48:00.872Z,99798.66
2023-05-01T04:03:02.928Z,99808.66
2023-05-01T04:18:05.093Z,99809.75
2023-05-01T04:33:11.678Z,99813.75
2023-05-01T04:48:14.072Z,99824.59
2023-05-01T05:03:19.216Z,99837.69
2023-05-01T05:18:21.232Z,99843.09
2023-05-01T05:33:25.115Z,99858.44
2023-05-01T05:48:27.889Z,99867.19
2023-05-01T06:03:30.406Z,99866.13
2023-05-01T06:18:32.341Z,99881.72
2023-05-01T07:31:43.018Z,99944.44
2023-05-01T07:47:12.448Z,99961.75
2023-05-01T08:02:14.501Z,99976.94
2023-05-01T08:17:21.497Z,99982.63
2023-05-01T08:32:23.914Z,100001.78
2023-05-01T08:47:27.770Z,100013.41
2023-05-01T09:02:31.491Z,100009.81
2023-05-01T09:17:34.765Z,100023.63
2023-05-01T09:32:37.514Z,100042.34
2023-05-01T09:47:40.188Z,100060.19
2023-05-01T10:02:46.311Z,100085.53
2023-05-01T10:17:51.695Z,100101.09
2023-05-01T10:32:54.108Z,100128.97
2023-05-01T10:47:56.300Z,100134.03
2023-05-01T11:03:23.159Z,100159.66
2023-05-01T11:18:47.626Z,100179.75
2023-05-01T11:33:50.125Z,100187.16
2023-05-01T11:48:51.984Z,100194.97
2023-05-01T12:03:54.282Z,100205.22
2023-05-01T12:18:56.606Z,100195.78
2023-05-01T12:34:01.306Z,100196.91
2023-05-01T12:49:03.317Z,100211.75
2023-05-01T13:04:05.330Z,100227.25
2023-05-01T13:19:07.713Z,100237.38
2023-05-01T13:34:09.865Z,100256.25
2023-05-01T13:49:12.473Z,100266.31
2023-05-01T14:04:17.374Z,100277.22
2023-05-01T14:19:31.492Z,100291.31
2023-05-01T14:34:34.101Z,100302.00
2023-05-01T14:49:36.233Z,100303.19
2023-05-01T15:04:38.197Z,100314.66
2023-05-01T15:19:40.154Z,100312.69
2023-05-01T15:34:43.069Z,100320.66
2023-05-01T15:49:45.055Z,100341.97
2023-05-01T16:04:48.025Z,100380.09
2023-05-01T16:19:49.996Z,100408.22
2023-05-01T16:34:52.025Z,100430.97
2023-05-01T16:50:00.491Z,100466.22
2023-05-01T17:05:03.083Z,100485.66
2023-05-01T17:20:06.529Z,100507.22
2023-05-01T17:35:08.893Z,100536.91
2023-05-01T17:50:15.173Z,100552.75
2023-05-01T18:05:23.293Z,100552.44
2023-05-01T18:20:25.699Z,100578.75
2023-05-01T18:35:28.292Z,100599.25
2023-05-01T18:50:30.549Z,100613.84
2023-05-01T19:05:32.925Z,100630.69
2023-05-01T19:20:35.176Z,100635.31
2023-05-01T19:35:37.621Z,100639.56
2023-05-01T19:50:39.457Z,100670.81
2023-05-01T20:06:07.658Z,100676.69
2023-05-01T20:21:09.559Z,100686.22
2023-05-01T20:36:11.772Z,100707.88
2023-05-01T20:51:14.797Z,100717.44
2023-05-01T21:06:16.776Z,100733.53
2023-05-01T21:21:18.806Z,100745.63
2023-05-01T21:36:21.241Z,100743.13
2023-05-01T21:51:30.201Z,100738.91
2023-05-01T22:06:32.541Z,100751.38
2023-05-01T22:21:34.617Z,100768.50
2023-05-01T22:36:40.862Z,100766.34
2023-05-01T22:51:42.764Z,100775.06
2023-05-01T23:06:44.841Z,100792.66
2023-05-01T23:21:47.043Z,100784.56
2023-05-01T23:36:48.964Z,100798.25
2023-05-01T23:51:50.829Z,100803.47
